sensor_id;sensor_type;location;lat;lon;timestamp;P1;durP1;ratioP1;P2;durP2;ratioP2
77581;SDS011;66726;52.388;9.986;2023-02-18T00:01:39;9.07;;;2.90;;
77581;SDS011;66726;52.388;9.986;2023-02-18T00:04:07;10.13;;;2.72;;
77581;SDS011;66726;52.388;9.986;2023-02-18T00:06:37;8.87;;;3.03;;
77581;SDS011;66726;52.388;9.986;2023-02-18T00:09:05;10.18;;;2.78;;
77581;SDS011;66726;52.388;9.986;2023-02-18T00:11:34;9.27;;;2.95;;
77581;SDS011;66726;52.388;9.986;2023-02-18T00:14:05;9.27;;;2.88;;
77581;SDS011;66726;52.388;9.986;2023-02-18T00:16:38;7.57;;;2.90;;
77581;SDS011;66726;52.388;9.986;2023-02-18T00:19:07;8.23;;;2.55;;
77581;SDS011;66726;52.388;9.986;2023-02-18T00:21:42;10.15;;;2.65;;
77581;SDS011;66726;52.388;9.986;2023-02-18T00:24:12;10.65;;;3.13;;
77581;SDS011;66726;52.388;9.986;2023-02-18T00:26:42;9.75;;;2.88;;
77581;SDS011;66726;52.388;9.986;2023-02-18T00:29:11;10.00;;;2.70;;
77581;SDS011;66726;52.388;9.986;2023-02-18T00:31:39;8.82;;;3.00;;
77581;SDS011;66726;52.388;9.986;2023-02-18T00:34:08;10.32;;;3.00;;
77581;SDS011;66726;52.388;9.986;2023-02-18T00:36:39;10.17;;;2.90;;
77581;SDS011;66726;52.388;9.986;2023-02-18T00:39:09;10.48;;;2.75;;
77581;SDS011;66726;52.388;9.986;2023-02-18T00:41:38;10.80;;;3.20;;
77581;SDS011;66726;52.388;9.986;2023-02-18T00:44:07;9.63;;;2.90;;
77581;SDS011;66726;52.388;9.986;2023-02-18T00:46:36;9.43;;;2.80;;
77581;SDS011;66726;52.388;9.986;2023-02-18T00:49:05;11.23;;;2.83;;
77581;SDS011;66726;52.388;9.986;2023-02-18T00:51:34;9.47;;;2.87;;
77581;SDS011;66726;52.388;9.986;2023-02-18T00:54:03;11.02;;;3.10;;
77581;SDS011;66726;52.388;9.986;2023-02-18T00:56:32;11.40;;;3.00;;
77581;SDS011;66726;52.388;9.986;2023-02-18T00:59:01;12.35;;;3.03;;
77581;SDS011;66726;52.388;9.986;2023-02-18T01:01:29;9.93;;;3.00;;
77581;SDS011;66726;52.388;9.986;2023-02-18T01:03:58;10.18;;;2.60;;
77581;SDS011;66726;52.388;9.986;2023-02-18T01:06:26;11.77;;;2.77;;
77581;SDS011;66726;52.388;9.986;2023-02-18T01:08:54;10.63;;;2.70;;
77581;SDS011;66726;52.388;9.986;2023-02-18T01:11:22;10.43;;;2.93;;
77581;SDS011;66726;52.388;9.986;2023-02-18T01:13:52;13.27;;;3.40;;
77581;SDS011;66726;52.388;9.986;2023-02-18T01:16:20;11.82;;;3.00;;
77581;SDS011;66726;52.388;9.986;2023-02-18T01:18:48;9.87;;;2.80;;
77581;SDS011;66726;52.388;9.986;2023-02-18T01:21:17;9.98;;;2.90;;
77581;SDS011;66726;52.388;9.986;2023-02-18T01:23:45;10.65;;;3.10;;
77581;SDS011;66726;52.388;9.986;2023-02-18T01:26:13;10.68;;;3.00;;
77581;SDS011;66726;52.388;9.986;2023-02-18T01:28:41;10.00;;;2.80;;
77581;SDS011;66726;52.388;9.986;2023-02-18T01:31:11;10.97;;;2.80;;
77581;SDS011;66726;52.388;9.986;2023-02-18T01:33:41;9.57;;;3.05;;
77581;SDS011;66726;52.388;9.986;2023-02-18T01:36:10;8.38;;;2.60;;
77581;SDS011;66726;52.388;9.986;2023-02-18T01:38:38;14.73;;;3.13;;
77581;SDS011;66726;52.388;9.986;2023-02-18T01:41:06;10.57;;;3.03;;
77581;SDS011;66726;52.388;9.986;2023-02-18T01:43:35;8.33;;;2.53;;
77581;SDS011;66726;52.388;9.986;2023-02-18T01:46:17;9.75;;;2.53;;
77581;SDS011;66726;52.388;9.986;2023-02-18T01:48:48;12.55;;;2.63;;
77581;SDS011;66726;52.388;9.986;2023-02-18T01:51:23;10.65;;;3.13;;
77581;SDS011;66726;52.388;9.986;2023-02-18T01:53:55;11.82;;;2.78;;
77581;SDS011;66726;52.388;9.986;2023-02-18T01:56:30;8.73;;;2.72;;
77581;SDS011;66726;52.388;9.986;2023-02-18T01:59:05;13.17;;;2.80;;
77581;SDS011;66726;52.388;9.986;2023-02-18T02:01:38;9.85;;;2.80;;
77581;SDS011;66726;52.388;9.986;2023-02-18T02:04:11;9.65;;;2.60;;
77581;SDS011;66726;52.388;9.986;2023-02-18T02:06:40;12.00;;;3.38;;
77581;SDS011;66726;52.388;9.986;2023-02-18T02:09:09;8.85;;;2.60;;
77581;SDS011;66726;52.388;9.986;2023-02-18T02:11:49;10.32;;;2.85;;
77581;SDS011;66726;52.388;9.986;2023-02-18T02:15:04;8.13;;;2.60;;
77581;SDS011;66726;52.388;9.986;2023-02-18T02:18:01;9.63;;;2.40;;
77581;SDS011;66726;52.388;9.986;2023-02-18T02:24:18;11.82;;;2.70;;
77581;SDS011;66726;52.388;9.986;2023-02-18T02:27:20;10.93;;;2.83;;
77581;SDS011;66726;52.388;9.986;2023-02-18T02:29:59;8.75;;;2.85;;
77581;SDS011;66726;52.388;9.986;2023-02-18T02:33:28;10.75;;;3.00;;
77581;SDS011;66726;52.388;9.986;2023-02-18T02:36:23;10.02;;;2.83;;
77581;SDS011;66726;52.388;9.986;2023-02-18T02:39:03;9.38;;;2.70;;
77581;SDS011;66726;52.388;9.986;2023-02-18T02:41:48;9.50;;;2.83;;
77581;SDS011;66726;52.388;9.986;2023-02-18T02:44:28;9.45;;;2.58;;
77581;SDS011;66726;52.388;9.986;2023-02-18T02:47:07;9.73;;;2.72;;
77581;SDS011;66726;52.388;9.986;2023-02-18T02:49:48;11.48;;;3.40;;
77581;SDS011;66726;52.388;9.986;2023-02-18T02:52:30;6.97;;;2.40;;
77581;SDS011;66726;52.388;9.986;2023-02-18T02:55:02;9.77;;;2.72;;
77581;SDS011;66726;52.388;9.986;2023-02-18T02:57:42;9.82;;;2.60;;
77581;SDS011;66726;52.388;9.986;2023-02-18T03:00:17;9.88;;;2.78;;
77581;SDS011;66726;52.388;9.986;2023-02-18T03:03:03;8.98;;;2.67;;
77581;SDS011;66726;52.388;9.986;2023-02-18T03:06:01;10.27;;;2.78;;
77581;SDS011;66726;52.388;9.986;2023-02-18T03:08:56;12.70;;;3.17;;
77581;SDS011;66726;52.388;9.986;2023-02-18T03:11:38;9.55;;;2.63;;
77581;SDS011;66726;52.388;9.986;2023-02-18T03:14:13;9.38;;;2.70;;
77581;SDS011;66726;52.388;9.986;2023-02-18T03:16:56;12.27;;;3.35;;
77581;SDS011;66726;52.388;9.986;2023-02-18T03:19:31;10.07;;;2.92;;
77581;SDS011;66726;52.388;9.986;2023-02-18T03:22:06;11.77;;;3.17;;
77581;SDS011;66726;52.388;9.986;2023-02-18T03:24:41;11.17;;;3.10;;
77581;SDS011;66726;52.388;9.986;2023-02-18T03:27:13;15.85;;;3.78;;
77581;SDS011;66726;52.388;9.986;2023-02-18T03:29:48;12.00;;;3.58;;
77581;SDS011;66726;52.388;9.986;2023-02-18T03:32:23;12.60;;;3.25;;
77581;SDS011;66726;52.388;9.986;2023-02-18T03:34:55;11.30;;;2.80;;
77581;SDS011;66726;52.388;9.986;2023-02-18T03:37:29;11.05;;;3.20;;
77581;SDS011;66726;52.388;9.986;2023-02-18T03:40:05;11.80;;;3.58;;
77581;SDS011;66726;52.388;9.986;2023-02-18T03:42:37;11.23;;;3.53;;
77581;SDS011;66726;52.388;9.986;2023-02-18T03:45:05;10.93;;;3.53;;
77581;SDS011;66726;52.388;9.986;2023-02-18T03:47:34;12.05;;;3.50;;
77581;SDS011;66726;52.388;9.986;2023-02-18T03:50:02;12.52;;;3.78;;
77581;SDS011;66726;52.388;9.986;2023-02-18T03:52:32;12.50;;;3.95;;
77581;SDS011;66726;52.388;9.986;2023-02-18T03:55:01;13.80;;;4.00;;
77581;SDS011;66726;52.388;9.986;2023-02-18T03:57:32;13.82;;;4.50;;
77581;SDS011;66726;52.388;9.986;2023-02-18T04:00:00;12.20;;;3.97;;
77581;SDS011;66726;52.388;9.986;2023-02-18T04:02:29;14.70;;;4.60;;
77581;SDS011;66726;52.388;9.986;2023-02-18T04:04:57;11.00;;;4.20;;
77581;SDS011;66726;52.388;9.986;2023-02-18T04:07:25;15.48;;;4.80;;
77581;SDS011;66726;52.388;9.986;2023-02-18T04:09:53;14.45;;;4.78;;
77581;SDS011;66726;52.388;9.986;2023-02-18T04:12:21;13.57;;;4.97;;
77581;SDS011;66726;52.388;9.986;2023-02-18T04:14:51;13.30;;;5.32;;
77581;SDS011;66726;52.388;9.986;2023-02-18T04:17:19;16.03;;;6.17;;
77581;SDS011;66726;52.388;9.986;2023-02-18T04:19:47;15.60;;;6.63;;
77581;SDS011;66726;52.388;9.986;2023-02-18T04:22:15;17.25;;;7.15;;
77581;SDS011;66726;52.388;9.986;2023-02-18T04:24:43;16.67;;;7.35;;
77581;SDS011;66726;52.388;9.986;2023-02-18T04:27:11;20.35;;;8.73;;
77581;SDS011;66726;52.388;9.986;2023-02-18T04:29:40;20.52;;;9.00;;
77581;SDS011;66726;52.388;9.986;2023-02-18T04:32:09;16.67;;;9.57;;
77581;SDS011;66726;52.388;9.986;2023-02-18T04:34:37;19.80;;;9.40;;
77581;SDS011;66726;52.388;9.986;2023-02-18T04:37:05;17.77;;;9.20;;
77581;SDS011;66726;52.388;9.986;2023-02-18T04:39:33;18.50;;;8.20;;
77581;SDS011;66726;52.388;9.986;2023-02-18T04:42:01;15.75;;;8.10;;
77581;SDS011;66726;52.388;9.986;2023-02-18T04:44:34;16.75;;;9.18;;
77581;SDS011;66726;52.388;9.986;2023-02-18T04:47:02;20.52;;;9.38;;
77581;SDS011;66726;52.388;9.986;2023-02-18T04:49:33;18.55;;;9.75;;
77581;SDS011;66726;52.388;9.986;2023-02-18T04:52:01;19.17;;;9.48;;
77581;SDS011;66726;52.388;9.986;2023-02-18T04:54:30;20.63;;;10.52;;
77581;SDS011;66726;52.388;9.986;2023-02-18T04:56:58;21.63;;;10.70;;
77581;SDS011;66726;52.388;9.986;2023-02-18T04:59:26;22.10;;;11.32;;
77581;SDS011;66726;52.388;9.986;2023-02-18T05:01:54;19.97;;;11.07;;
77581;SDS011;66726;52.388;9.986;2023-02-18T05:04:23;17.90;;;10.32;;
77581;SDS011;66726;52.388;9.986;2023-02-18T05:06:52;24.47;;;12.23;;
77581;SDS011;66726;52.388;9.986;2023-02-18T05:09:20;25.13;;;12.35;;
77581;SDS011;66726;52.388;9.986;2023-02-18T05:11:49;23.67;;;12.13;;
77581;SDS011;66726;52.388;9.986;2023-02-18T05:14:17;24.45;;;11.30;;
77581;SDS011;66726;52.388;9.986;2023-02-18T05:16:46;27.38;;;12.75;;
77581;SDS011;66726;52.388;9.986;2023-02-18T05:19:14;24.30;;;12.68;;
77581;SDS011;66726;52.388;9.986;2023-02-18T05:21:43;24.42;;;12.88;;
77581;SDS011;66726;52.388;9.986;2023-02-18T05:24:12;21.48;;;12.02;;
77581;SDS011;66726;52.388;9.986;2023-02-18T05:26:40;24.20;;;13.23;;
77581;SDS011;66726;52.388;9.986;2023-02-18T05:29:09;25.45;;;13.65;;
77581;SDS011;66726;52.388;9.986;2023-02-18T05:31:37;23.60;;;13.50;;
77581;SDS011;66726;52.388;9.986;2023-02-18T05:34:05;23.92;;;12.98;;
77581;SDS011;66726;52.388;9.986;2023-02-18T05:36:33;24.30;;;13.57;;
77581;SDS011;66726;52.388;9.986;2023-02-18T05:39:01;23.73;;;13.30;;
77581;SDS011;66726;52.388;9.986;2023-02-18T05:41:31;26.50;;;14.07;;
77581;SDS011;66726;52.388;9.986;2023-02-18T05:43:59;23.20;;;13.23;;
77581;SDS011;66726;52.388;9.986;2023-02-18T05:46:45;26.48;;;13.93;;
77581;SDS011;66726;52.388;9.986;2023-02-18T05:49:13;29.65;;;15.55;;
77581;SDS011;66726;52.388;9.986;2023-02-18T05:51:41;27.88;;;15.80;;
77581;SDS011;66726;52.388;9.986;2023-02-18T05:54:09;27.33;;;15.68;;
77581;SDS011;66726;52.388;9.986;2023-02-18T05:56:39;29.33;;;16.45;;
77581;SDS011;66726;52.388;9.986;2023-02-18T05:59:07;29.08;;;16.55;;
77581;SDS011;66726;52.388;9.986;2023-02-18T06:01:35;28.50;;;16.40;;
77581;SDS011;66726;52.388;9.986;2023-02-18T06:04:03;31.55;;;18.27;;
77581;SDS011;66726;52.388;9.986;2023-02-18T06:06:32;25.77;;;16.20;;
77581;SDS011;66726;52.388;9.986;2023-02-18T06:09:00;32.05;;;18.35;;
77581;SDS011;66726;52.388;9.986;2023-02-18T06:11:29;26.40;;;17.00;;
77581;SDS011;66726;52.388;9.986;2023-02-18T06:14:00;30.08;;;17.92;;
77581;SDS011;66726;52.388;9.986;2023-02-18T06:16:29;28.67;;;17.95;;
77581;SDS011;66726;52.388;9.986;2023-02-18T06:18:57;29.97;;;17.60;;
77581;SDS011;66726;52.388;9.986;2023-02-18T06:21:26;31.67;;;20.08;;
77581;SDS011;66726;52.388;9.986;2023-02-18T06:23:54;30.55;;;19.35;;
77581;SDS011;66726;52.388;9.986;2023-02-18T06:26:22;31.67;;;20.13;;
77581;SDS011;66726;52.388;9.986;2023-02-18T06:28:50;30.23;;;20.58;;
77581;SDS011;66726;52.388;9.986;2023-02-18T06:31:19;29.85;;;20.02;;
77581;SDS011;66726;52.388;9.986;2023-02-18T06:33:48;30.42;;;18.83;;
77581;SDS011;66726;52.388;9.986;2023-02-18T06:36:16;27.15;;;18.45;;
77581;SDS011;66726;52.388;9.986;2023-02-18T06:38:44;29.65;;;19.52;;
77581;SDS011;66726;52.388;9.986;2023-02-18T06:41:13;28.85;;;19.35;;
77581;SDS011;66726;52.388;9.986;2023-02-18T06:43:41;31.55;;;21.10;;
77581;SDS011;66726;52.388;9.986;2023-02-18T06:46:09;26.80;;;19.88;;
77581;SDS011;66726;52.388;9.986;2023-02-18T06:48:39;28.93;;;22.43;;
77581;SDS011;66726;52.388;9.986;2023-02-18T06:51:07;29.98;;;22.63;;
77581;SDS011;66726;52.388;9.986;2023-02-18T06:53:35;32.40;;;22.10;;
77581;SDS011;66726;52.388;9.986;2023-02-18T06:56:03;30.48;;;21.45;;
77581;SDS011;66726;52.388;9.986;2023-02-18T06:58:32;28.00;;;20.65;;
77581;SDS011;66726;52.388;9.986;2023-02-18T07:01:00;27.65;;;20.55;;
77581;SDS011;66726;52.388;9.986;2023-02-18T07:03:28;27.30;;;21.13;;
77581;SDS011;66726;52.388;9.986;2023-02-18T07:05:58;36.88;;;26.63;;
77581;SDS011;66726;52.388;9.986;2023-02-18T07:08:26;27.67;;;22.52;;
77581;SDS011;66726;52.388;9.986;2023-02-18T07:10:55;37.15;;;26.75;;
77581;SDS011;66726;52.388;9.986;2023-02-18T07:13:23;31.80;;;24.73;;
77581;SDS011;66726;52.388;9.986;2023-02-18T07:15:51;30.63;;;23.83;;
77581;SDS011;66726;52.388;9.986;2023-02-18T07:18:19;32.90;;;25.90;;
77581;SDS011;66726;52.388;9.986;2023-02-18T07:20:48;35.00;;;26.70;;
77581;SDS011;66726;52.388;9.986;2023-02-18T07:23:17;34.87;;;26.13;;
77581;SDS011;66726;52.388;9.986;2023-02-18T07:25:45;38.55;;;29.90;;
77581;SDS011;66726;52.388;9.986;2023-02-18T07:28:13;35.08;;;27.77;;
77581;SDS011;66726;52.388;9.986;2023-02-18T07:30:41;29.48;;;25.13;;
77581;SDS011;66726;52.388;9.986;2023-02-18T07:33:10;39.53;;;29.77;;
77581;SDS011;66726;52.388;9.986;2023-02-18T07:35:39;46.60;;;32.05;;
77581;SDS011;66726;52.388;9.986;2023-02-18T07:38:07;33.05;;;27.15;;
77581;SDS011;66726;52.388;9.986;2023-02-18T07:40:37;40.17;;;30.33;;
77581;SDS011;66726;52.388;9.986;2023-02-18T07:43:05;42.42;;;30.80;;
77581;SDS011;66726;52.388;9.986;2023-02-18T07:45:33;40.53;;;30.85;;
77581;SDS011;66726;52.388;9.986;2023-02-18T07:48:04;43.25;;;31.20;;
77581;SDS011;66726;52.388;9.986;2023-02-18T07:50:32;50.90;;;33.43;;
77581;SDS011;66726;52.388;9.986;2023-02-18T07:53:02;61.57;;;34.87;;
77581;SDS011;66726;52.388;9.986;2023-02-18T07:55:31;39.42;;;28.00;;
77581;SDS011;66726;52.388;9.986;2023-02-18T07:58:14;53.38;;;31.40;;
77581;SDS011;66726;52.388;9.986;2023-02-18T08:00:42;54.85;;;31.73;;
77581;SDS011;66726;52.388;9.986;2023-02-18T08:03:12;55.53;;;31.45;;
77581;SDS011;66726;52.388;9.986;2023-02-18T08:05:41;39.88;;;26.73;;
77581;SDS011;66726;52.388;9.986;2023-02-18T08:08:11;49.80;;;28.77;;
77581;SDS011;66726;52.388;9.986;2023-02-18T08:10:40;50.00;;;28.20;;
77581;SDS011;66726;52.388;9.986;2023-02-18T08:13:09;51.07;;;28.23;;
77581;SDS011;66726;52.388;9.986;2023-02-18T08:15:38;49.10;;;27.63;;
77581;SDS011;66726;52.388;9.986;2023-02-18T08:18:07;45.13;;;25.95;;
77581;SDS011;66726;52.388;9.986;2023-02-18T08:20:42;42.35;;;24.42;;
77581;SDS011;66726;52.388;9.986;2023-02-18T08:23:12;46.15;;;24.75;;
77581;SDS011;66726;52.388;9.986;2023-02-18T08:25:44;41.40;;;24.75;;
77581;SDS011;66726;52.388;9.986;2023-02-18T08:28:15;43.38;;;24.45;;
77581;SDS011;66726;52.388;9.986;2023-02-18T08:30:45;37.78;;;22.00;;
77581;SDS011;66726;52.388;9.986;2023-02-18T08:33:14;32.83;;;20.00;;
77581;SDS011;66726;52.388;9.986;2023-02-18T08:35:43;30.33;;;18.88;;
77581;SDS011;66726;52.388;9.986;2023-02-18T08:38:14;28.42;;;17.33;;
77581;SDS011;66726;52.388;9.986;2023-02-18T08:40:42;26.88;;;16.33;;
77581;SDS011;66726;52.388;9.986;2023-02-18T08:43:11;23.43;;;14.50;;
77581;SDS011;66726;52.388;9.986;2023-02-18T08:45:40;23.33;;;13.98;;
77581;SDS011;66726;52.388;9.986;2023-02-18T08:48:11;20.35;;;13.05;;
77581;SDS011;66726;52.388;9.986;2023-02-18T08:50:45;18.05;;;12.15;;
77581;SDS011;66726;52.388;9.986;2023-02-18T08:53:14;15.65;;;11.05;;
77581;SDS011;66726;52.388;9.986;2023-02-18T08:55:42;17.45;;;11.27;;
77581;SDS011;66726;52.388;9.986;2023-02-18T08:58:11;17.35;;;11.70;;
77581;SDS011;66726;52.388;9.986;2023-02-18T09:00:40;14.55;;;9.50;;
77581;SDS011;66726;52.388;9.986;2023-02-18T09:03:12;11.23;;;7.78;;
77581;SDS011;66726;52.388;9.986;2023-02-18T09:05:41;7.40;;;5.88;;
77581;SDS011;66726;52.388;9.986;2023-02-18T09:08:10;5.70;;;4.90;;
77581;SDS011;66726;52.388;9.986;2023-02-18T09:10:39;4.37;;;3.97;;
77581;SDS011;66726;52.388;9.986;2023-02-18T09:13:09;4.40;;;3.88;;
77581;SDS011;66726;52.388;9.986;2023-02-18T09:15:38;4.93;;;3.75;;
77581;SDS011;66726;52.388;9.986;2023-02-18T09:18:06;5.32;;;3.50;;
77581;SDS011;66726;52.388;9.986;2023-02-18T09:20:35;4.32;;;3.75;;
77581;SDS011;66726;52.388;9.986;2023-02-18T09:23:06;4.97;;;4.00;;
77581;SDS011;66726;52.388;9.986;2023-02-18T09:25:34;3.97;;;3.55;;
77581;SDS011;66726;52.388;9.986;2023-02-18T09:28:06;3.97;;;3.60;;
77581;SDS011;66726;52.388;9.986;2023-02-18T09:30:34;3.90;;;3.60;;
77581;SDS011;66726;52.388;9.986;2023-02-18T09:33:02;3.95;;;3.65;;
77581;SDS011;66726;52.388;9.986;2023-02-18T09:35:30;3.92;;;3.60;;
77581;SDS011;66726;52.388;9.986;2023-02-18T09:38:00;3.70;;;3.40;;
77581;SDS011;66726;52.388;9.986;2023-02-18T09:40:30;3.17;;;2.88;;
77581;SDS011;66726;52.388;9.986;2023-02-18T09:43:04;3.13;;;2.83;;
77581;SDS011;66726;52.388;9.986;2023-02-18T09:45:33;2.90;;;2.70;;
77581;SDS011;66726;52.388;9.986;2023-02-18T09:48:01;2.70;;;2.50;;
77581;SDS011;66726;52.388;9.986;2023-02-18T09:50:31;3.38;;;2.70;;
77581;SDS011;66726;52.388;9.986;2023-02-18T09:53:02;2.60;;;2.40;;
77581;SDS011;66726;52.388;9.986;2023-02-18T09:55:31;2.45;;;2.25;;
77581;SDS011;66726;52.388;9.986;2023-02-18T09:58:05;2.50;;;2.30;;
77581;SDS011;66726;52.388;9.986;2023-02-18T10:00:41;2.20;;;2.00;;
77581;SDS011;66726;52.388;9.986;2023-02-18T10:03:14;2.50;;;2.30;;
77581;SDS011;66726;52.388;9.986;2023-02-18T10:05:47;1.98;;;1.88;;
77581;SDS011;66726;52.388;9.986;2023-02-18T10:08:26;2.20;;;2.00;;
77581;SDS011;66726;52.388;9.986;2023-02-18T10:11:00;2.15;;;1.95;;
77581;SDS011;66726;52.388;9.986;2023-02-18T10:13:29;2.30;;;2.03;;
77581;SDS011;66726;52.388;9.986;2023-02-18T10:16:00;2.25;;;2.15;;
77581;SDS011;66726;52.388;9.986;2023-02-18T10:18:30;2.30;;;2.15;;
77581;SDS011;66726;52.388;9.986;2023-02-18T10:21:06;2.50;;;2.30;;
77581;SDS011;66726;52.388;9.986;2023-02-18T10:23:41;2.70;;;2.50;;
77581;SDS011;66726;52.388;9.986;2023-02-18T10:26:20;2.28;;;2.10;;
77581;SDS011;66726;52.388;9.986;2023-02-18T10:28:49;2.60;;;2.40;;
77581;SDS011;66726;52.388;9.986;2023-02-18T10:31:19;2.40;;;2.20;;
77581;SDS011;66726;52.388;9.986;2023-02-18T10:33:58;2.22;;;2.10;;
77581;SDS011;66726;52.388;9.986;2023-02-18T10:36:39;2.42;;;2.22;;
77581;SDS011;66726;52.388;9.986;2023-02-18T10:39:33;2.70;;;2.50;;
77581;SDS011;66726;52.388;9.986;2023-02-18T10:42:19;3.63;;;2.80;;
77581;SDS011;66726;52.388;9.986;2023-02-18T10:45:04;3.35;;;3.00;;
77581;SDS011;66726;52.388;9.986;2023-02-18T10:47:49;3.17;;;2.90;;
77581;SDS011;66726;52.388;9.986;2023-02-18T10:50:32;3.10;;;2.90;;
77581;SDS011;66726;52.388;9.986;2023-02-18T10:53:07;3.25;;;2.92;;
77581;SDS011;66726;52.388;9.986;2023-02-18T10:55:42;3.00;;;2.60;;
77581;SDS011;66726;52.388;9.986;2023-02-18T10:58:25;2.90;;;2.60;;
77581;SDS011;66726;52.388;9.986;2023-02-18T11:00:58;2.80;;;2.50;;
77581;SDS011;66726;52.388;9.986;2023-02-18T11:03:40;2.58;;;2.38;;
77581;SDS011;66726;52.388;9.986;2023-02-18T11:06:19;2.93;;;2.40;;
77581;SDS011;66726;52.388;9.986;2023-02-18T11:08:54;2.33;;;1.85;;
77581;SDS011;66726;52.388;9.986;2023-02-18T11:11:29;2.10;;;1.90;;
77581;SDS011;66726;52.388;9.986;2023-02-18T11:14:01;2.35;;;2.15;;
77581;SDS011;66726;52.388;9.986;2023-02-18T11:16:37;2.50;;;2.30;;
77581;SDS011;66726;52.388;9.986;2023-02-18T11:19:21;2.35;;;2.15;;
77581;SDS011;66726;52.388;9.986;2023-02-18T11:22:05;2.85;;;2.10;;
77581;SDS011;66726;52.388;9.986;2023-02-18T11:24:42;2.97;;;2.20;;
77581;SDS011;66726;52.388;9.986;2023-02-18T11:27:17;4.07;;;3.63;;
77581;SDS011;66726;52.388;9.986;2023-02-18T11:29:53;10.27;;;9.27;;
77581;SDS011;66726;52.388;9.986;2023-02-18T11:32:28;3.33;;;3.03;;
77581;SDS011;66726;52.388;9.986;2023-02-18T11:35:00;6.00;;;5.40;;
77581;SDS011;66726;52.388;9.986;2023-02-18T11:37:31;8.73;;;7.80;;
77581;SDS011;66726;52.388;9.986;2023-02-18T11:40:03;13.15;;;11.73;;
77581;SDS011;66726;52.388;9.986;2023-02-18T11:42:35;12.98;;;11.65;;
77581;SDS011;66726;52.388;9.986;2023-02-18T11:45:03;7.72;;;7.03;;
77581;SDS011;66726;52.388;9.986;2023-02-18T11:47:32;13.10;;;11.90;;
77581;SDS011;66726;52.388;9.986;2023-02-18T11:50:09;13.53;;;12.20;;
77581;SDS011;66726;52.388;9.986;2023-02-18T11:52:47;17.13;;;15.48;;
77581;SDS011;66726;52.388;9.986;2023-02-18T11:55:19;18.30;;;16.52;;
77581;SDS011;66726;52.388;9.986;2023-02-18T11:57:52;7.15;;;6.57;;
77581;SDS011;66726;52.388;9.986;2023-02-18T12:00:29;5.70;;;5.25;;
77581;SDS011;66726;52.388;9.986;2023-02-18T12:03:06;8.07;;;7.40;;
77581;SDS011;66726;52.388;9.986;2023-02-18T12:05:44;4.90;;;4.50;;
77581;SDS011;66726;52.388;9.986;2023-02-18T12:08:14;4.53;;;4.22;;
77581;SDS011;66726;52.388;9.986;2023-02-18T12:10:50;4.88;;;4.47;;
77581;SDS011;66726;52.388;9.986;2023-02-18T12:13:25;6.17;;;5.67;;
77581;SDS011;66726;52.388;9.986;2023-02-18T12:16:02;4.60;;;4.20;;
77581;SDS011;66726;52.388;9.986;2023-02-18T12:18:47;3.75;;;3.35;;
77581;SDS011;66726;52.388;9.986;2023-02-18T12:21:41;3.88;;;3.58;;
77581;SDS011;66726;52.388;9.986;2023-02-18T12:24:30;3.45;;;3.10;;
77581;SDS011;66726;52.388;9.986;2023-02-18T12:27:16;3.58;;;3.28;;
77581;SDS011;66726;52.388;9.986;2023-02-18T12:29:55;3.70;;;2.60;;
77581;SDS011;66726;52.388;9.986;2023-02-18T12:32:53;2.95;;;2.35;;
77581;SDS011;66726;52.388;9.986;2023-02-18T12:35:34;2.85;;;2.55;;
77581;SDS011;66726;52.388;9.986;2023-02-18T12:38:25;2.47;;;2.28;;
77581;SDS011;66726;52.388;9.986;2023-02-18T12:41:27;2.90;;;2.60;;
77581;SDS011;66726;52.388;9.986;2023-02-18T12:44:16;2.40;;;2.00;;
77581;SDS011;66726;52.388;9.986;2023-02-18T12:47:21;4.40;;;4.10;;
77581;SDS011;66726;52.388;9.986;2023-02-18T12:53:11;2.40;;;2.20;;
77581;SDS011;66726;52.388;9.986;2023-02-18T12:56:17;2.70;;;2.30;;
77581;SDS011;66726;52.388;9.986;2023-02-18T12:59:14;2.80;;;2.13;;
77581;SDS011;66726;52.388;9.986;2023-02-18T13:02:13;3.08;;;2.38;;
77581;SDS011;66726;52.388;9.986;2023-02-18T13:05:05;2.70;;;2.50;;
77581;SDS011;66726;52.388;9.986;2023-02-18T13:07:52;2.67;;;2.47;;
77581;SDS011;66726;52.388;9.986;2023-02-18T13:10:40;3.03;;;2.40;;
77581;SDS011;66726;52.388;9.986;2023-02-18T13:13:19;3.00;;;2.70;;
77581;SDS011;66726;52.388;9.986;2023-02-18T13:15:52;3.08;;;2.70;;
77581;SDS011;66726;52.388;9.986;2023-02-18T13:18:29;3.47;;;2.80;;
77581;SDS011;66726;52.388;9.986;2023-02-18T13:21:02;3.08;;;2.78;;
77581;SDS011;66726;52.388;9.986;2023-02-18T13:23:34;3.28;;;2.88;;
77581;SDS011;66726;52.388;9.986;2023-02-18T13:26:10;3.83;;;2.80;;
77581;SDS011;66726;52.388;9.986;2023-02-18T13:28:43;4.90;;;3.10;;
77581;SDS011;66726;52.388;9.986;2023-02-18T13:31:25;3.83;;;2.90;;
77581;SDS011;66726;52.388;9.986;2023-02-18T13:34:09;3.50;;;2.90;;
77581;SDS011;66726;52.388;9.986;2023-02-18T13:36:53;4.20;;;3.38;;
77581;SDS011;66726;52.388;9.986;2023-02-18T13:39:34;3.17;;;2.83;;
77581;SDS011;66726;52.388;9.986;2023-02-18T13:42:09;3.72;;;2.83;;
77581;SDS011;66726;52.388;9.986;2023-02-18T13:45:02;4.47;;;3.38;;
77581;SDS011;66726;52.388;9.986;2023-02-18T13:47:58;4.82;;;3.47;;
77581;SDS011;66726;52.388;9.986;2023-02-18T13:50:42;3.67;;;3.20;;
77581;SDS011;66726;52.388;9.986;2023-02-18T13:53:14;3.33;;;3.03;;
77581;SDS011;66726;52.388;9.986;2023-02-18T13:55:50;4.03;;;2.90;;
77581;SDS011;66726;52.388;9.986;2023-02-18T13:58:37;3.57;;;3.00;;
77581;SDS011;66726;52.388;9.986;2023-02-18T14:07:42;3.80;;;3.28;;
77581;SDS011;66726;52.388;9.986;2023-02-18T14:13:19;6.50;;;5.90;;
77581;SDS011;66726;52.388;9.986;2023-02-18T14:15:53;10.55;;;8.30;;
77581;SDS011;66726;52.388;9.986;2023-02-18T14:21:36;4.80;;;4.00;;
77581;SDS011;66726;52.388;9.986;2023-02-18T14:24:10;6.38;;;4.03;;
77581;SDS011;66726;52.388;9.986;2023-02-18T14:26:42;4.87;;;3.80;;
77581;SDS011;66726;52.388;9.986;2023-02-18T14:29:14;4.53;;;4.00;;
77581;SDS011;66726;52.388;9.986;2023-02-18T14:31:53;4.63;;;4.10;;
77581;SDS011;66726;52.388;9.986;2023-02-18T14:34:42;5.00;;;4.13;;
77581;SDS011;66726;52.388;9.986;2023-02-18T14:40:50;5.00;;;4.30;;
77581;SDS011;66726;52.388;9.986;2023-02-18T14:43:57;4.43;;;4.00;;
77581;SDS011;66726;52.388;9.986;2023-02-18T14:46:58;4.60;;;4.20;;
77581;SDS011;66726;52.388;9.986;2023-02-18T14:49:47;6.40;;;4.55;;
77581;SDS011;66726;52.388;9.986;2023-02-18T14:52:22;5.38;;;4.80;;
77581;SDS011;66726;52.388;9.986;2023-02-18T14:54:59;4.85;;;4.45;;
77581;SDS011;66726;52.388;9.986;2023-02-18T14:57:35;7.25;;;4.80;;
77581;SDS011;66726;52.388;9.986;2023-02-18T15:00:13;7.47;;;4.83;;
77581;SDS011;66726;52.388;9.986;2023-02-18T15:02:46;7.60;;;4.72;;
77581;SDS011;66726;52.388;9.986;2023-02-18T15:05:17;6.38;;;4.63;;
77581;SDS011;66726;52.388;9.986;2023-02-18T15:07:55;5.85;;;4.38;;
77581;SDS011;66726;52.388;9.986;2023-02-18T15:10:28;7.38;;;4.90;;
77581;SDS011;66726;52.388;9.986;2023-02-18T15:13:08;8.00;;;5.00;;
77581;SDS011;66726;52.388;9.986;2023-02-18T15:15:46;8.68;;;4.40;;
77581;SDS011;66726;52.388;9.986;2023-02-18T15:18:20;7.95;;;5.00;;
77581;SDS011;66726;52.388;9.986;2023-02-18T15:20:56;6.47;;;4.30;;
77581;SDS011;66726;52.388;9.986;2023-02-18T15:23:27;7.30;;;5.05;;
77581;SDS011;66726;52.388;9.986;2023-02-18T15:25:57;33.08;;;21.65;;
77581;SDS011;66726;52.388;9.986;2023-02-18T15:28:27;31.13;;;20.45;;
77581;SDS011;66726;52.388;9.986;2023-02-18T15:30:58;13.20;;;9.25;;
77581;SDS011;66726;52.388;9.986;2023-02-18T15:33:29;8.67;;;5.40;;
77581;SDS011;66726;52.388;9.986;2023-02-18T15:36:00;11.77;;;8.35;;
77581;SDS011;66726;52.388;9.986;2023-02-18T15:38:30;13.90;;;8.37;;